x

Boston 16 Nm East Of Boston, Ma (44013) Wave Buoy

8:50pm - Fri 6th Mar 2015 All times are EST. -5 hours from GMT.

  • Sig Wave height 2.6ft
  • Swell Direction
  • Peak Period 3s
  • Average Period 4s
  • Wind
    22mph, 27mph gusts
  • Sea Temp 36°f
  • Air Temp 22°f
  • Sea Pressure 1027.5mb
  • Boston 16 Nm East Of Boston, Ma
  • Boston 16 Nm East Of Boston, Ma

More Historic Weather Station data

Upgrade to MSW Pro to gain access to the past 30 days of data for over 8000 Wavebouys and Weather Stations around the globe.

Join Pro

Comparision Forecast

View Surf forecast
   
Fri 03/06 8:50pm 2.5ft 3s 4s 22 27 mph 1027.5mb 36f 22f
7:50pm 2.5ft 3s 4s 20 22 mph 1028.2mb 36f 23f
6:50pm 2.5ft 6s 4s 18 20 mph 1028.7mb 36f 24f
5:50pm 2ft 6s 5s 16 20 mph 1029.2mb 36f 24f
4:50pm 2ft 6s 5s 11 13 mph 1029.7mb 36f 23f
3:50pm 2ft 6s 5s 9 13 mph 1030.4mb 36f 22f
2:50pm 2.5ft 6s 5s 4 7 mph 1031.1mb 37f 21f
1:50pm 2.5ft 6s 5s  -  4 mph 1031.3mb 36f 20f
12:50pm 2.5ft 6s 5s 2 7 mph 1031.9mb 36f 19f
11:50am 3ft 6s 5s 4 9 mph 1032.7mb 36f 18f
10:50am 3.5ft 6s 4s 7 9 mph 1032.7mb 36f 17f
9:50am 3.5ft 6s 4s 11 16 mph 1032.7mb 36f 17f
8:50am 3.5ft 6s 4s 13 18 mph 1032.8mb 36f 16f
7:50am 3.5ft 6s 4s 13 18 mph 1032.5mb 36f 15f
6:50am 3.5ft 5s 4s 18 20 mph 1031.4mb 36f 15f
5:50am 3.5ft 5s 4s 20 25 mph 1030.8mb 36f 15f
4:50am 3.5ft 4s 4s 20 25 mph 1030.1mb 36f 15f
3:50am 4ft 4s 4s 20 27 mph 1029.1mb 36f 15f
2:50am 4ft 4s 4s 22 27 mph 1028.2mb 36f 16f
1:50am 4.5ft 4s 4s 22 31 mph 1027.7mb 36f 18f
12:50am 4ft 4s 4s 25 31 mph 1026.5mb 36f 20f
Thu 03/05 11:50pm 3.5ft 4s 4s 25 31 mph 1025.4mb 36f 20f
10:50pm 3.5ft 4s 4s 25 29 mph 1025.1mb 36f 21f
9:50pm 3.5ft 4s 4s 22 27 mph 1024.4mb 36f 22f
8:50pm 3ft 5s 4s 18 22 mph 1023.6mb 36f 22f
7:50pm 3ft 11s 4s 16 20 mph 1023.1mb 36f 24f
6:50pm 2.5ft 4s  -  13 22 mph 1022mb 36f 24f
5:50pm 3ft 4s 4s 16 20 mph 1020.9mb 36f 25f
4:50pm 3ft 11s 4s 13 18 mph 1020mb 36f 26f
3:50pm 3.5ft 11s 4s 16 20 mph 1019.8mb 36f 26f
2:50pm 4ft 5s 4s 18 22 mph 1018.9mb 36f 27f
1:50pm 3.5ft 11s 4s 22 27 mph 1018.5mb 36f 27f
12:50pm 3ft 11s 4s 18 22 mph 1017.7mb 36f 29f
11:50am 2.5ft 11s 4s 16 25 mph 1017.5mb 36f 29f
10:50am 2.5ft 3s 4s 22 25 mph 1017.4mb 36f 32f
9:50am 2.5ft 3s 4s 18 22 mph 1017.1mb 36f 33f
8:50am 2.5ft 4s 4s 13 16 mph 1016.5mb 36f 32f
7:50am 2.5ft 11s 4s 22 27 mph 1015.9mb 36f 31f
6:50am 2.5ft 11s 5s 20 27 mph 1014.9mb 36f 34f
5:50am 2.5ft 11s 5s 16 20 mph 1014.7mb 36f 36f
4:50am 2ft 11s 6s 18 22 mph 1012.5mb 36f 37f
3:50am 2.5ft 10s 7s 13 18 mph 1012mb 36f 36f
2:50am 1.6ft 11s 8s 11 13 mph 1011.1mb 36f 37f
1:50am 1.6ft 10s 7s 9 11 mph 1011.4mb 36f 37f
12:50am 2ft 10s 8s 9
mph
1010.5mb 36f 37f
Wed 03/04 11:50pm 1.3ft 11s 7s 9
mph
1010.9mb 36f 37f
10:50pm 1.3ft 10s 6s 9
mph
1011.1mb 36f 38f
9:50pm 1.3ft 10s 5s 7 9 mph 1010mb 36f 38f
8:50pm 1.6ft 11s 5s 9 11 mph 1010.7mb 36f 38f
7:50pm 1.6ft 9s 4s 9 11 mph 1009.7mb 36f 38f
6:50pm 2ft 8s 5s 16 18 mph 1010.3mb 36f 39f
5:50pm 2ft 9s 5s 13 16 mph 1009.5mb 37f 39f
4:50pm 1.6ft 8s 4s 13 16 mph 1008.8mb 37f 39f
3:50pm 1.6ft 3s 3s 13
mph
1007.8mb 37f 39f
2:50pm 1.6ft 3s 3s 16 18 mph 1007.9mb 37f 39f
1:50pm 1.3ft 3s 3s 11 13 mph 1007.9mb 37f 39f
12:50pm 1.3ft 9s 3s 13 16 mph 1008mb 37f 39f
11:50am 1.3ft 7s 4s 13 16 mph 1008.1mb 36f 39f
10:50am 1.3ft 7s 4s 11 13 mph 1008mb 36f 38f
9:50am 1.3ft 7s 4s 11 13 mph 1007.6mb 36f 37f
8:50am 2ft 7s 4s 7 11 mph 1006.6mb 37f 37f
7:50am 2.5ft 4s 4s 11 13 mph 1006.5mb 37f 37f
6:50am 2.5ft 4s 4s 13 16 mph 1006mb 37f 37f
5:50am 3.5ft 5s 4s 11 13 mph 1005mb 37f 37f
4:50am 3.5ft 5s 4s 13 16 mph 1004.3mb 37f 38f
3:50am 3.5ft 5s 4s 16 18 mph 1004.2mb 37f 39f
2:50am  -   -   -  9 11 mph 1004.7mb 37f 37f
1:50am 3.5ft 5s 4s 13 18 mph 1005.8mb 36f 37f
12:50am 3.5ft 5s 4s 16 18 mph 1007.6mb 36f 35f
Tue 03/03 11:50pm 4.5ft 5s 4s 18 25 mph 1010mb 36f 32f
10:50pm 4ft 5s 4s 25 29 mph 1012mb 36f 31f
9:50pm 3.5ft 5s 4s 25 31 mph 1014.8mb 36f 29f
8:50pm 3ft 4s 4s 22 27 mph 1017.1mb 36f 28f
7:50pm 2.5ft 4s 4s 18 22 mph 1020mb 36f 27f
6:50pm 2.5ft 4s 3s 22 27 mph 1021mb 36f 29f
5:50pm 2ft 3s 3s 18 22 mph 1022.2mb 37f 30f
4:50pm 1.6ft 3s 3s 18 20 mph 1023.1mb 37f 29f
3:50pm 1ft 9s 5s 16 20 mph 1024.4mb 37f 28f
2:50pm 1.3ft 10s 5s 7 11 mph 1025.8mb 37f 28f
1:50pm 1.3ft 11s 5s 2 7 mph 1026.7mb 37f 27f
12:50pm 1.3ft 10s 4s 4
mph
1028mb 37f 26f
11:50am 1.6ft 3s 3s 9 13 mph 1028.9mb 37f 25f
10:50am 2ft 3s 4s 11 16 mph 1029.5mb 37f 24f
9:50am 2.5ft 3s 4s 16 18 mph 1029.3mb 37f 24f
8:50am 2.5ft 3s 4s 16 20 mph 1029.7mb 36f 23f
7:50am 3ft 4s 4s 20 27 mph 1029mb 36f 24f
6:50am 3.5ft 4s 4s 22 27 mph 1028.4mb 36f 24f
5:50am 3.5ft 4s 4s 25 29 mph 1028.1mb 36f 24f
4:50am 3.5ft 4s 4s 27 34 mph 1027.9mb 37f 24f
3:50am 3.5ft 4s 4s 25 29 mph 1027mb 37f 25f
2:50am 3.5ft 4s 4s 25 29 mph 1026.1mb 37f 25f